createdAt,value
2023-10-10T00:01:19.540Z,14.38
2023-10-10T00:03:46.656Z,11.95
2023-10-10T00:06:15.078Z,12.82
2023-10-10T00:08:43.643Z,11.30
2023-10-10T00:11:17.696Z,10.65
2023-10-10T00:13:44.767Z,9.57
2023-10-10T00:16:26.550Z,44.20
2023-10-10T00:19:03.283Z,12.77
2023-10-10T00:21:29.855Z,22.80
2023-10-10T00:24:00.458Z,17.90
2023-10-10T00:26:27.317Z,12.43
2023-10-10T00:28:57.161Z,10.85
2023-10-10T00:31:29.819Z,9.15
2023-10-10T00:33:56.652Z,17.95
2023-10-10T00:36:28.841Z,30.48
2023-10-10T00:39:06.991Z,26.85
2023-10-10T00:41:43.761Z,74.72
2023-10-10T00:44:13.942Z,40.05
2023-10-10T00:46:40.900Z,14.68
2023-10-10T00:49:11.581Z,14.38
2023-10-10T00:51:40.263Z,12.30
2023-10-10T00:54:13.773Z,11.63
2023-10-10T00:56:45.257Z,14.60
2023-10-10T00:59:12.364Z,13.40
2023-10-10T01:01:41.819Z,12.77
2023-10-10T01:04:10.914Z,11.98
2023-10-10T01:06:40.100Z,11.95
2023-10-10T01:09:22.515Z,16.60
2023-10-10T01:11:52.553Z,33.47
2023-10-10T01:14:27.820Z,112.22
2023-10-10T01:16:59.206Z,86.85
2023-10-10T01:19:31.998Z,94.30
2023-10-10T01:21:59.516Z,90.65
2023-10-10T01:27:06.130Z,13.07
2023-10-10T01:29:42.017Z,22.08
2023-10-10T01:32:11.937Z,24.48
2023-10-10T01:34:45.084Z,16.25
2023-10-10T01:37:24.340Z,10.13
2023-10-10T01:40:18.294Z,17.27
2023-10-10T01:43:03.360Z,64.20
2023-10-10T01:45:30.952Z,140.75
2023-10-10T01:47:58.009Z,106.38
2023-10-10T01:50:28.391Z,59.75
2023-10-10T01:52:57.236Z,22.98
2023-10-10T01:55:26.262Z,8.15
2023-10-10T01:58:11.263Z,10.43
2023-10-10T02:00:37.920Z,12.65
2023-10-10T02:03:05.482Z,14.07
2023-10-10T02:05:37.972Z,11.20
2023-10-10T02:08:12.411Z,13.73
2023-10-10T02:10:45.165Z,12.38
2023-10-10T02:13:12.620Z,11.00
2023-10-10T02:15:40.677Z,11.05
2023-10-10T02:18:14.274Z,11.27
2023-10-10T02:20:44.543Z,11.80
2023-10-10T02:23:24.084Z,11.75
2023-10-10T02:25:54.450Z,15.98
2023-10-10T02:28:21.860Z,12.70
2023-10-10T02:30:53.411Z,17.50
2023-10-10T02:33:20.443Z,13.13
2023-10-10T02:35:56.114Z,12.23
2023-10-10T02:38:34.571Z,10.82
2023-10-10T02:41:18.550Z,14.65
2023-10-10T02:43:54.350Z,17.38
2023-10-10T02:46:22.053Z,17.73
2023-10-10T02:48:55.251Z,12.73
2023-10-10T02:51:21.808Z,11.32
2023-10-10T02:53:48.301Z,12.40
2023-10-10T02:56:19.900Z,14.57
2023-10-10T02:58:55.101Z,32.25
2023-10-10T03:01:40.309Z,12.73
2023-10-10T03:04:09.418Z,11.23
2023-10-10T03:06:36.162Z,27.17
2023-10-10T03:09:29.004Z,18.90
2023-10-10T03:12:04.795Z,58.67
2023-10-10T03:14:34.801Z,50.95
2023-10-10T03:17:06.807Z,63.90
2023-10-10T03:19:39.808Z,25.45
2023-10-10T03:22:24.938Z,61.67
2023-10-10T03:25:22.070Z,39.15
2023-10-10T03:28:06.474Z,27.52
2023-10-10T03:30:51.269Z,38.47
2023-10-10T03:33:37.861Z,38.15
2023-10-10T03:36:18.835Z,29.52
2023-10-10T03:38:52.499Z,40.78
2023-10-10T03:41:38.385Z,49.38
2023-10-10T03:44:23.579Z,59.92
2023-10-10T03:46:58.995Z,59.88
2023-10-10T03:49:45.007Z,95.78
2023-10-10T03:52:30.236Z,72.65
2023-10-10T03:55:15.607Z,84.15
2023-10-10T03:58:00.926Z,112.38
2023-10-10T04:00:46.009Z,97.25
2023-10-10T04:03:30.817Z,77.07
2023-10-10T04:06:22.946Z,126.55
2023-10-10T04:09:07.728Z,90.63
2023-10-10T04:11:53.216Z,81.65
2023-10-10T04:14:38.676Z,55.97
2023-10-10T04:17:24.018Z,73.28
2023-10-10T04:20:08.887Z,68.97
2023-10-10T04:22:53.918Z,76.82
2023-10-10T04:25:39.282Z,69.05
2023-10-10T04:28:24.768Z,72.75
2023-10-10T04:31:09.560Z,74.88
2023-10-10T04:33:54.313Z,76.80
2023-10-10T04:36:39.209Z,83.90
2023-10-10T04:39:24.021Z,105.00
2023-10-10T04:42:08.869Z,113.68
2023-10-10T04:44:54.176Z,85.75
2023-10-10T04:47:39.203Z,76.63
2023-10-10T04:50:24.928Z,71.85
2023-10-10T04:53:09.754Z,79.82
2023-10-10T04:55:55.058Z,63.55
2023-10-10T04:58:39.930Z,77.82
2023-10-10T05:01:26.791Z,59.78
2023-10-10T05:04:12.324Z,63.92
2023-10-10T05:06:57.214Z,48.10
2023-10-10T05:09:42.669Z,62.85
2023-10-10T05:12:27.536Z,52.28
2023-10-10T05:15:12.287Z,50.15
2023-10-10T05:17:57.126Z,48.08
2023-10-10T05:20:43.396Z,45.08
2023-10-10T05:23:28.399Z,50.10
2023-10-10T05:25:56.224Z,47.33
2023-10-10T05:28:23.379Z,55.25
2023-10-10T05:30:49.865Z,53.10
2023-10-10T05:33:20.717Z,49.30
2023-10-10T05:35:51.145Z,48.88
2023-10-10T05:38:18.296Z,35.90
2023-10-10T05:40:44.921Z,46.35
2023-10-10T05:43:16.682Z,39.35
2023-10-10T05:45:46.779Z,49.92
2023-10-10T05:48:13.560Z,48.28
2023-10-10T05:50:43.781Z,47.63
2023-10-10T05:53:11.067Z,47.88
2023-10-10T05:55:38.557Z,55.60
2023-10-10T05:58:06.392Z,57.65
2023-10-10T06:00:38.882Z,52.28
2023-10-10T06:03:08.929Z,53.85
2023-10-10T06:05:36.091Z,56.63
2023-10-10T06:08:03.124Z,52.95
2023-10-10T06:10:33.965Z,49.92
2023-10-10T06:13:04.965Z,49.75
2023-10-10T06:15:35.270Z,48.10
2023-10-10T06:18:15.181Z,52.97
2023-10-10T06:21:06.605Z,56.92
2023-10-10T06:23:36.483Z,46.33
2023-10-10T06:26:05.379Z,50.40
2023-10-10T06:28:43.591Z,50.00
2023-10-10T06:31:14.034Z,54.15
2023-10-10T06:33:43.401Z,52.53
2023-10-10T06:36:23.511Z,46.65
2023-10-10T06:39:19.323Z,50.63
2023-10-10T06:41:48.975Z,52.22
2023-10-10T06:44:16.328Z,52.47
2023-10-10T06:49:13.502Z,51.92
2023-10-10T06:51:43.621Z,59.28
2023-10-10T06:54:20.726Z,53.47
2023-10-10T06:57:02.908Z,48.55
2023-10-10T06:59:30.153Z,48.33
2023-10-10T07:02:13.749Z,55.85
2023-10-10T07:04:41.068Z,59.90
2023-10-10T07:07:10.077Z,45.88
2023-10-10T07:09:38.474Z,51.03
2023-10-10T07:12:12.095Z,52.88
2023-10-10T07:14:44.633Z,49.80
2023-10-10T07:17:14.906Z,47.20
2023-10-10T07:20:03.978Z,49.63
2023-10-10T07:22:34.971Z,47.58
2023-10-10T07:25:09.328Z,49.50
2023-10-10T07:27:41.191Z,47.72
2023-10-10T07:30:18.114Z,47.70
2023-10-10T07:32:45.131Z,46.85
2023-10-10T07:35:17.969Z,51.88
2023-10-10T07:37:45.433Z,45.20
2023-10-10T07:40:21.313Z,51.50
2023-10-10T07:42:50.842Z,50.75
2023-10-10T07:45:28.696Z,44.42
2023-10-10T07:48:01.160Z,46.92
2023-10-10T07:50:35.826Z,46.88
2023-10-10T07:53:14.246Z,44.42
2023-10-10T07:55:55.126Z,45.25
2023-10-10T07:58:37.172Z,45.97
2023-10-10T08:01:17.525Z,47.25
2023-10-10T08:03:46.124Z,43.45
2023-10-10T08:06:23.300Z,44.53
2023-10-10T08:09:12.641Z,48.15
2023-10-10T08:11:39.321Z,42.08
2023-10-10T08:14:09.728Z,44.88
2023-10-10T08:16:41.395Z,37.25
2023-10-10T08:19:12.172Z,39.13
2023-10-10T08:21:40.589Z,40.55
2023-10-10T08:24:08.857Z,35.92
2023-10-10T08:26:42.033Z,38.83
2023-10-10T08:29:13.600Z,37.92
2023-10-10T08:31:43.385Z,39.20
2023-10-10T08:34:10.529Z,37.78
2023-10-10T08:39:18.217Z,34.50
2023-10-10T08:41:45.824Z,35.30
2023-10-10T08:44:16.398Z,33.28
2023-10-10T08:46:47.512Z,36.70
2023-10-10T08:49:15.689Z,40.83
2023-10-10T08:51:43.962Z,33.45
2023-10-10T08:54:12.146Z,33.97
2023-10-10T08:57:01.206Z,35.38
2023-10-10T08:59:31.815Z,33.40
2023-10-10T09:02:07.322Z,35.33
2023-10-10T09:04:34.435Z,33.65
2023-10-10T09:09:39.136Z,32.65
2023-10-10T09:12:13.803Z,28.73
2023-10-10T09:14:51.680Z,28.40
2023-10-10T09:17:36.865Z,29.80
2023-10-10T09:20:24.628Z,32.00
2023-10-10T09:22:59.850Z,29.58
2023-10-10T09:25:32.557Z,28.02
2023-10-10T09:28:09.204Z,29.45
2023-10-10T09:30:41.711Z,26.30
2023-10-10T09:33:14.876Z,31.55
2023-10-10T09:35:41.969Z,26.77
2023-10-10T09:38:16.569Z,28.48
2023-10-10T09:40:47.555Z,28.80
2023-10-10T09:43:25.310Z,32.53
2023-10-10T09:46:11.878Z,27.65
2023-10-10T09:48:41.350Z,25.00
2023-10-10T09:51:27.431Z,28.85
2023-10-10T09:54:05.099Z,26.08
2023-10-10T09:56:32.365Z,25.38
2023-10-10T09:59:00.579Z,27.13
2023-10-10T10:01:28.291Z,25.98
2023-10-10T10:04:01.702Z,25.65
2023-10-10T10:07:05.961Z,23.88
2023-10-10T10:09:57.020Z,24.42
2023-10-10T10:12:47.066Z,28.27
2023-10-10T10:15:40.928Z,24.70
2023-10-10T10:18:14.795Z,24.10
2023-10-10T10:21:06.720Z,27.45
2023-10-10T10:23:46.346Z,24.80
2023-10-10T10:26:23.676Z,24.42
2023-10-10T10:28:59.262Z,22.10
2023-10-10T10:31:30.412Z,22.75
2023-10-10T10:34:11.405Z,23.80
2023-10-10T10:36:46.282Z,21.60
2023-10-10T10:39:25.098Z,22.75
2023-10-10T10:41:56.661Z,23.50
2023-10-10T10:45:01.510Z,24.92
2023-10-10T10:47:37.376Z,18.42
2023-10-10T10:50:05.908Z,20.20
2023-10-10T10:52:45.412Z,20.73
2023-10-10T10:55:22.798Z,19.02
2023-10-10T10:58:07.193Z,21.63
2023-10-10T11:00:42.521Z,20.17
2023-10-10T11:03:12.752Z,23.67
2023-10-10T11:05:41.371Z,18.08
2023-10-10T11:08:13.070Z,17.88
2023-10-10T11:10:39.992Z,18.90
2023-10-10T11:13:09.082Z,20.30
2023-10-10T11:15:39.365Z,22.88
2023-10-10T11:18:09.628Z,20.52
2023-10-10T11:20:58.211Z,23.13
2023-10-10T11:23:34.934Z,17.77
2023-10-10T11:26:09.177Z,22.55
2023-10-10T11:28:47.721Z,20.50
2023-10-10T11:31:17.406Z,20.50
2023-10-10T11:33:49.965Z,18.60
2023-10-10T11:36:30.443Z,16.05
2023-10-10T11:39:17.914Z,22.30
2023-10-10T11:41:46.541Z,22.38
2023-10-10T11:44:19.932Z,19.65
2023-10-10T11:49:19.601Z,16.13
2023-10-10T11:51:47.850Z,19.20
2023-10-10T11:54:14.576Z,19.20
2023-10-10T11:56:41.127Z,21.48
2023-10-10T11:59:15.381Z,19.02
2023-10-10T12:01:52.657Z,18.27
2023-10-10T12:04:32.047Z,21.83
2023-10-10T12:07:06.429Z,20.77
2023-10-10T12:09:33.862Z,21.08
2023-10-10T12:12:02.638Z,25.83
2023-10-10T12:14:31.557Z,23.42
2023-10-10T12:17:01.308Z,24.30
2023-10-10T12:19:36.865Z,21.17
2023-10-10T12:22:11.824Z,22.40
2023-10-10T12:24:40.461Z,23.40
2023-10-10T12:27:10.535Z,20.85
2023-10-10T12:29:41.487Z,20.42
2023-10-10T12:32:23.320Z,21.30
2023-10-10T12:34:50.248Z,19.27
2023-10-10T12:37:16.791Z,23.92
2023-10-10T12:42:10.485Z,19.08
2023-10-10T12:44:36.928Z,21.35
2023-10-10T12:47:07.562Z,19.92
2023-10-10T12:49:37.903Z,19.50
2023-10-10T12:52:13.061Z,21.13
2023-10-10T12:54:39.772Z,18.42
2023-10-10T12:59:35.168Z,21.52
2023-10-10T13:02:04.422Z,21.33
2023-10-10T13:04:33.381Z,20.77
2023-10-10T13:07:04.813Z,22.15
2023-10-10T13:09:33.087Z,19.60
2023-10-10T13:12:03.690Z,21.52
2023-10-10T13:14:33.993Z,20.58
2023-10-10T13:17:33.122Z,21.27
2023-10-10T13:20:00.257Z,21.25
2023-10-10T13:22:30.252Z,19.55
2023-10-10T13:24:57.160Z,19.08
2023-10-10T13:29:52.955Z,17.77
2023-10-10T13:32:21.424Z,17.88
2023-10-10T13:34:48.127Z,17.67
2023-10-10T13:37:14.615Z,19.50
2023-10-10T13:39:49.992Z,21.75
2023-10-10T13:42:18.740Z,15.73
2023-10-10T13:44:45.517Z,15.75
2023-10-10T13:47:12.065Z,17.02
2023-10-10T13:49:45.470Z,17.75
2023-10-10T13:52:13.899Z,22.40
2023-10-10T13:54:40.681Z,18.10
2023-10-10T13:57:08.480Z,15.82
2023-10-10T13:59:35.028Z,16.02
2023-10-10T14:02:05.303Z,16.50
2023-10-10T14:04:46.759Z,15.73
2023-10-10T14:07:17.613Z,17.45
2023-10-10T14:10:02.387Z,14.68
2023-10-10T14:12:32.971Z,16.85
2023-10-10T14:15:00.520Z,16.42
2023-10-10T14:19:53.661Z,20.88
2023-10-10T14:22:25.111Z,18.27
2023-10-10T14:27:21.264Z,21.38
2023-10-10T14:29:49.100Z,20.80
2023-10-10T14:32:31.009Z,19.83
2023-10-10T14:35:04.158Z,19.85
2023-10-10T14:37:45.297Z,18.98
2023-10-10T14:40:19.563Z,20.02
2023-10-10T14:42:45.937Z,16.27
2023-10-10T14:45:13.782Z,19.70
2023-10-10T14:47:44.448Z,17.85
2023-10-10T14:50:13.824Z,15.45
2023-10-10T14:52:48.240Z,15.52
2023-10-10T14:55:25.211Z,16.38
2023-10-10T14:57:56.294Z,13.90
2023-10-10T15:00:24.334Z,13.27
2023-10-10T15:02:54.432Z,11.80
2023-10-10T15:05:24.575Z,10.70
2023-10-10T15:07:53.576Z,17.25
2023-10-10T15:10:24.666Z,14.05
2023-10-10T15:12:51.134Z,14.85
2023-10-10T15:15:18.005Z,14.68
2023-10-10T15:17:44.630Z,15.18
2023-10-10T15:20:13.450Z,15.95
2023-10-10T15:22:43.030Z,12.07
2023-10-10T15:25:11.812Z,12.77
2023-10-10T15:27:42.030Z,14.65
2023-10-10T15:30:10.055Z,15.73
2023-10-10T15:32:49.394Z,13.23
2023-10-10T15:35:18.148Z,17.35
2023-10-10T15:37:45.473Z,14.18
2023-10-10T15:40:22.265Z,17.23
2023-10-10T15:42:52.955Z,15.80
2023-10-10T15:45:22.532Z,13.65
2023-10-10T15:47:50.529Z,14.07
2023-10-10T15:50:17.892Z,14.45
2023-10-10T15:52:50.063Z,15.68
2023-10-10T15:55:25.203Z,13.02
2023-10-10T15:57:53.602Z,11.43
2023-10-10T16:00:22.694Z,14.00
2023-10-10T16:02:53.771Z,12.80
2023-10-10T16:05:21.049Z,15.27
2023-10-10T16:07:59.041Z,14.77
2023-10-10T16:10:33.356Z,14.23
2023-10-10T16:12:59.876Z,11.77
2023-10-10T16:15:31.064Z,13.52
2023-10-10T16:18:02.024Z,15.95
2023-10-10T16:20:28.712Z,18.75
2023-10-10T16:22:55.211Z,10.80
2023-10-10T16:25:24.119Z,15.18
2023-10-10T16:27:51.057Z,12.70
2023-10-10T16:30:18.082Z,13.55
2023-10-10T16:35:12.642Z,12.45
2023-10-10T16:37:40.257Z,15.57
2023-10-10T16:40:09.472Z,13.13
2023-10-10T16:42:36.198Z,14.45
2023-10-10T16:45:03.285Z,11.98
2023-10-10T16:49:56.342Z,13.25
2023-10-10T16:52:27.070Z,13.27
2023-10-10T16:54:54.587Z,12.77
2023-10-10T16:57:26.987Z,12.93
2023-10-10T16:59:56.949Z,13.32
2023-10-10T17:02:28.818Z,15.90
2023-10-10T17:04:56.131Z,15.02
2023-10-10T17:07:22.767Z,14.75
2023-10-10T17:09:49.219Z,15.40
2023-10-10T17:12:18.832Z,13.55
2023-10-10T17:14:45.816Z,15.52
2023-10-10T17:17:14.159Z,15.07
2023-10-10T17:19:41.973Z,15.90
2023-10-10T17:22:08.408Z,13.60
2023-10-10T17:24:34.951Z,16.63
2023-10-10T17:27:01.766Z,15.50
2023-10-10T17:29:29.642Z,16.73
2023-10-10T17:31:56.091Z,17.58
2023-10-10T17:34:28.964Z,18.30
2023-10-10T17:37:00.029Z,18.25
2023-10-10T17:39:26.491Z,19.15
2023-10-10T17:41:53.270Z,21.42
2023-10-10T17:44:20.321Z,18.77
2023-10-10T17:46:47.865Z,15.57
2023-10-10T17:49:15.078Z,18.45
2023-10-10T17:51:45.414Z,18.17
2023-10-10T17:54:12.666Z,13.27
2023-10-10T17:56:39.066Z,14.07
2023-10-10T17:59:07.360Z,14.48
2023-10-10T18:01:33.998Z,13.23
2023-10-10T18:04:04.052Z,13.90
2023-10-10T18:06:30.732Z,19.40
2023-10-10T18:09:02.451Z,16.48
2023-10-10T18:11:33.200Z,16.85
2023-10-10T18:13:59.962Z,14.13
2023-10-10T18:16:26.368Z,13.88
2023-10-10T18:18:53.793Z,12.05
2023-10-10T18:21:21.239Z,15.55
2023-10-10T18:23:48.213Z,15.98
2023-10-10T18:26:17.283Z,12.90
2023-10-10T18:28:44.332Z,13.88
2023-10-10T18:31:19.798Z,13.38
2023-10-10T18:33:47.844Z,16.05
2023-10-10T18:36:14.351Z,17.00
2023-10-10T18:38:41.064Z,10.30
2023-10-10T18:41:09.005Z,13.07
2023-10-10T18:43:35.896Z,13.50
2023-10-10T18:46:02.473Z,13.50
2023-10-10T18:48:34.139Z,13.73
2023-10-10T18:51:01.880Z,14.88
2023-10-10T18:53:28.507Z,15.57
2023-10-10T18:55:56.264Z,12.07
2023-10-10T18:58:23.696Z,12.15
2023-10-10T19:00:52.391Z,11.82
2023-10-10T19:03:19.606Z,16.88
2023-10-10T19:08:18.976Z,11.10
2023-10-10T19:13:19.367Z,13.73
2023-10-10T19:15:48.748Z,13.60
2023-10-10T19:18:19.516Z,14.27
2023-10-10T19:20:47.701Z,11.75
2023-10-10T19:23:15.890Z,19.17
2023-10-10T19:25:48.887Z,19.30
2023-10-10T19:28:16.846Z,14.30
2023-10-10T19:30:44.350Z,14.25
2023-10-10T19:33:12.350Z,11.98
2023-10-10T19:35:45.290Z,13.10
2023-10-10T19:38:12.533Z,13.82
2023-10-10T19:40:43.817Z,14.20
2023-10-10T19:43:11.310Z,9.60
2023-10-10T19:45:38.731Z,11.98
2023-10-10T19:48:06.641Z,17.77
2023-10-10T19:50:43.541Z,14.15
2023-10-10T19:53:16.858Z,11.75
2023-10-10T19:55:45.350Z,10.38
2023-10-10T19:58:13.743Z,11.63
2023-10-10T20:00:44.515Z,13.70
2023-10-10T20:03:13.760Z,10.38
2023-10-10T20:05:42.106Z,10.77
2023-10-10T20:08:19.464Z,11.48
2023-10-10T20:10:48.984Z,12.02
2023-10-10T20:13:18.115Z,11.75
2023-10-10T20:15:45.375Z,8.20
2023-10-10T20:20:42.760Z,8.77
2023-10-10T20:23:10.470Z,9.55
2023-10-10T20:25:42.387Z,10.95
2023-10-10T20:28:10.171Z,9.18
2023-10-10T20:30:42.007Z,12.00
2023-10-10T20:33:15.620Z,9.23
2023-10-10T20:35:44.771Z,8.90
2023-10-10T20:38:11.502Z,13.30
2023-10-10T20:40:38.130Z,10.02
2023-10-10T20:43:06.446Z,13.10
2023-10-10T20:45:36.370Z,9.80
2023-10-10T20:48:09.550Z,10.73
2023-10-10T20:50:41.712Z,10.30
2023-10-10T20:53:13.022Z,10.95
2023-10-10T20:55:42.422Z,13.23
2023-10-10T20:58:11.712Z,9.88
2023-10-10T21:00:38.325Z,14.07
2023-10-10T21:03:08.266Z,10.55
2023-10-10T21:05:36.959Z,9.63
2023-10-10T21:08:04.706Z,9.70
2023-10-10T21:10:31.478Z,10.90
2023-10-10T21:12:58.478Z,11.77
2023-10-10T21:15:25.133Z,13.68
2023-10-10T21:17:53.844Z,9.77
2023-10-10T21:20:31.853Z,10.18
2023-10-10T21:23:00.804Z,9.35
2023-10-10T21:25:27.831Z,10.32
2023-10-10T21:27:58.177Z,12.35
2023-10-10T21:30:29.824Z,13.25
2023-10-10T21:32:57.884Z,12.15
2023-10-10T21:35:30.861Z,11.23
2023-10-10T21:38:03.090Z,13.68
2023-10-10T21:40:32.382Z,9.73
2023-10-10T21:42:58.834Z,10.75
2023-10-10T21:45:25.716Z,9.38
2023-10-10T21:47:58.104Z,10.27
2023-10-10T21:50:25.032Z,12.65
2023-10-10T21:52:51.830Z,10.23
2023-10-10T21:55:20.481Z,13.07
2023-10-10T21:57:58.122Z,10.93
2023-10-10T22:00:46.348Z,13.23
2023-10-10T22:03:15.173Z,9.80
2023-10-10T22:05:44.082Z,12.13
2023-10-10T22:08:11.655Z,12.15
2023-10-10T22:10:42.680Z,12.77
2023-10-10T22:13:12.338Z,11.15
2023-10-10T22:15:38.842Z,10.18
2023-10-10T22:18:06.126Z,10.40
2023-10-10T22:20:36.447Z,10.13
2023-10-10T22:23:05.761Z,12.93
2023-10-10T22:25:34.964Z,17.73
2023-10-10T22:28:02.696Z,14.02
2023-10-10T22:33:00.806Z,11.30
2023-10-10T22:35:29.505Z,15.65
2023-10-10T22:37:59.019Z,13.60
2023-10-10T22:40:28.844Z,14.00
2023-10-10T22:42:56.104Z,13.05
2023-10-10T22:45:23.518Z,14.43
2023-10-10T22:50:21.782Z,13.40
2023-10-10T22:52:51.410Z,14.98
2023-10-10T22:55:19.034Z,10.68
2023-10-10T22:57:45.770Z,11.15
2023-10-10T23:00:14.455Z,15.25
2023-10-10T23:02:49.273Z,10.30
2023-10-10T23:05:15.840Z,12.27
2023-10-10T23:07:42.987Z,13.75
2023-10-10T23:10:17.264Z,14.20
2023-10-10T23:12:43.941Z,14.05
2023-10-10T23:15:13.747Z,15.80
2023-10-10T23:17:44.366Z,13.88
2023-10-10T23:20:21.940Z,21.17
2023-10-10T23:22:49.580Z,13.10
2023-10-10T23:25:21.168Z,14.00
2023-10-10T23:27:48.765Z,14.07
2023-10-10T23:30:23.280Z,15.23
2023-10-10T23:32:51.759Z,14.15
2023-10-10T23:35:26.094Z,17.23
2023-10-10T23:37:54.654Z,17.65
2023-10-10T23:40:23.495Z,19.02
2023-10-10T23:42:52.466Z,16.33
2023-10-10T23:45:23.692Z,15.23
2023-10-10T23:47:52.795Z,16.40
2023-10-10T23:50:23.235Z,20.80
2023-10-10T23:52:53.120Z,14.65
2023-10-10T23:55:20.483Z,13.18
2023-10-10T23:57:48.837Z,13.73
